Time;durP1;ratioP1;P1;durP2;ratioP2;P2;SDS_P1;SDS_P2;PMS_P1;PMS_P2;Temp;Humidity;BMP_temperature;BMP_pressure;BME280_temperature;BME280_humidity;BME280_pressure;Samples;Min_cycle;Max_cycle;Signal;HPM_P1;HPM_P2
2022/12/06 00:01:45;;;;;;;16.42;6.03;;;;;;;-5.65;73.84;101858.92;1744962;82;21541;-62
2022/12/06 00:04:16;;;;;;;13.85;6.10;;;;;;;-5.64;73.77;101855.32;1752095;82;21230;-62
2022/12/06 00:06:47;;;;;;;20.23;5.90;;;;;;;-5.64;73.73;101852.66;1751843;82;21561;-62
2022/12/06 00:09:29;;;;;;;19.00;6.58;;;;;;;-5.66;73.71;101858.98;1751820;82;21607;-61
2022/12/06 00:11:58;;;;;;;15.50;6.42;;;;;;;-5.69;73.60;101861.77;1751614;82;21134;-62
2022/12/06 00:14:27;;;;;;;18.12;6.50;;;;;;;-5.73;73.63;101868.15;1751765;82;21515;-61
2022/12/06 00:16:56;;;;;;;14.47;6.05;;;;;;;-5.77;73.67;101865.59;1751711;82;21581;-63
2022/12/06 00:19:27;;;;;;;20.12;6.65;;;;;;;-5.83;73.83;101852.48;1751828;82;21134;-61
2022/12/06 00:21:57;;;;;;;19.02;6.97;;;;;;;-5.84;74.02;101857.88;1751963;82;21174;-61
2022/12/06 00:24:26;;;;;;;16.52;6.87;;;;;;;-5.84;74.02;101857.88;1751657;82;21123;-60
2022/12/06 00:26:55;;;;;;;21.25;7.45;;;;;;;-5.87;74.03;101853.95;1751802;82;21622;-61
2022/12/06 00:29:25;;;;;;;23.40;8.50;;;;;;;-5.91;74.09;101856.36;1751921;82;21166;-60
2022/12/06 00:31:53;;;;;;;27.10;9.63;;;;;;;-5.97;74.27;101848.13;1751941;82;21170;-61
2022/12/06 00:34:22;;;;;;;26.37;9.65;;;;;;;-5.99;74.50;101844.64;1751649;82;21680;-62
2022/12/06 00:36:51;;;;;;;25.80;10.32;;;;;;;-6.02;74.64;101845.22;1751869;82;21111;-60
2022/12/06 00:39:21;;;;;;;34.18;11.35;;;;;;;-6.07;74.74;101844.92;1751815;82;21233;-62
2022/12/06 00:41:50;;;;;;;26.62;10.25;;;;;;;-6.10;74.88;101845.04;1751843;82;21157;-63
2022/12/06 00:44:20;;;;;;;22.93;9.73;;;;;;;-6.13;75.08;101838.95;1751888;82;21435;-63
2022/12/06 00:46:49;;;;;;;27.82;9.78;;;;;;;-6.17;75.16;101837.32;1729273;81;21122;-62
2022/12/06 00:49:18;;;;;;;26.52;10.48;;;;;;;-6.22;75.27;101837.48;1721306;83;21122;-61
2022/12/06 00:51:48;;;;;;;24.45;10.00;;;;;;;-6.24;75.41;101836.67;1721500;83;21588;-61
2022/12/06 00:54:16;;;;;;;23.22;9.28;;;;;;;-6.27;75.56;101831.91;1721341;83;21154;-62
2022/12/06 00:56:47;;;;;;;30.92;10.65;;;;;;;-6.34;75.62;101827.27;1721441;83;21154;-62
2022/12/06 00:59:16;;;;;;;27.07;10.18;;;;;;;-6.36;75.72;101831.78;1721329;83;21570;-61
2022/12/06 01:01:45;;;;;;;25.30;9.78;;;;;;;-6.36;75.85;101836.24;1721369;83;21550;-60
2022/12/06 01:04:14;;;;;;;25.27;9.55;;;;;;;-6.37;75.84;101831.84;1721563;83;21163;-62
2022/12/06 01:06:43;;;;;;;27.10;9.68;;;;;;;-6.43;75.83;101823.59;1721511;83;21542;-61
2022/12/06 01:09:12;;;;;;;24.18;9.25;;;;;;;-6.46;75.93;101826.37;1721315;83;21153;-61
2022/12/06 01:11:41;;;;;;;27.73;9.03;;;;;;;-6.49;75.93;101830.48;1721292;83;21150;-61
2022/12/06 01:14:10;;;;;;;23.30;8.73;;;;;;;-6.52;76.07;101823.89;1721461;83;21637;-62
2022/12/06 01:16:40;;;;;;;22.62;8.63;;;;;;;-6.49;76.06;101823.81;1721493;83;21134;-62
2022/12/06 01:19:11;;;;;;;27.70;8.50;;;;;;;-6.51;75.97;101821.17;1721324;83;21173;-61
2022/12/06 01:21:40;;;;;;;19.07;7.67;;;;;;;-6.54;75.78;101818.61;1721498;83;21170;-61
2022/12/06 01:24:09;;;;;;;24.18;8.00;;;;;;;-6.59;75.72;101810.37;1721355;83;21627;-62
2022/12/06 01:26:39;;;;;;;24.43;8.70;;;;;;;-6.62;75.79;101809.14;1721450;83;21257;-61
2022/12/06 01:29:09;;;;;;;21.55;7.87;;;;;;;-6.64;75.70;101807.86;1721550;83;21550;-59
2022/12/06 01:31:38;;;;;;;21.30;7.47;;;;;;;-6.69;75.63;101808.48;1721242;83;21162;-61
2022/12/06 01:34:13;;;;;;;18.90;7.25;;;;;;;-6.74;75.58;101801.98;1721301;83;21209;-61
2022/12/06 01:36:42;;;;;;;25.80;7.65;;;;;;;-6.82;75.56;101805.38;1721362;83;21138;-62
2022/12/06 01:39:11;;;;;;;20.55;7.53;;;;;;;-6.84;75.75;101800.56;1721286;83;21558;-62
2022/12/06 01:41:40;;;;;;;30.10;8.13;;;;;;;-6.80;75.87;101792.87;1721354;83;21174;-62
2022/12/06 01:44:43;;;;;;;22.98;7.30;;;;;;;-6.75;75.79;101792.25;1721300;83;21138;-62
2022/12/06 01:47:21;;;;;;;19.20;6.70;;;;;;;-6.79;75.66;101781.29;1744266;82;21150;-61
2022/12/06 01:50:10;;;;;;;23.10;7.72;;;;;;;-6.79;75.71;101784.42;1751600;82;21158;-62
2022/12/06 01:53:05;;;;;;;21.33;7.65;;;;;;;-6.77;75.67;101781.23;1751912;82;21573;-62
2022/12/06 01:55:36;;;;;;;19.10;7.33;;;;;;;-6.78;75.65;101772.37;1751579;82;21566;-61
2022/12/06 01:58:16;;;;;;;20.05;8.20;;;;;;;-6.77;75.59;101765.25;1751655;82;21126;-61
2022/12/06 02:00:46;;;;;;;22.42;7.35;;;;;;;-6.73;75.56;101766.42;1751732;82;21165;-61
2022/12/06 02:03:22;;;;;;;18.30;7.58;;;;;;;-6.75;75.44;101764.27;1751896;82;21542;-61
2022/12/06 02:05:51;;;;;;;19.17;8.00;;;;;;;-6.74;75.40;101766.01;1751615;82;21130;-62
2022/12/06 02:08:20;;;;;;;20.02;7.70;;;;;;;-6.73;75.36;101766.42;1751593;82;21123;-62
2022/12/06 02:10:50;;;;;;;23.70;8.60;;;;;;;-6.68;75.33;101764.05;1751508;82;21591;-61
2022/12/06 02:13:20;;;;;;;20.10;7.55;;;;;;;-6.66;75.18;101764.86;1751786;82;21185;-61
2022/12/06 02:16:16;;;;;;;18.65;7.75;;;;;;;-6.66;75.10;101754.20;1751705;82;21153;-62
2022/12/06 02:19:05;;;;;;;22.50;7.42;;;;;;;-6.66;75.05;101758.20;1744992;82;21151;-62
2022/12/06 02:22:08;;;;;;;18.17;6.67;;;;;;;-6.68;74.96;101752.92;1735424;82;21585;-60
2022/12/06 02:25:00;;;;;;;21.20;6.50;;;;;;;-6.67;75.00;101751.13;1751218;82;21593;-61
2022/12/06 02:27:54;;;;;;;24.63;8.50;;;;;;;-6.64;74.94;101750.56;1751718;82;21158;-63
2022/12/06 02:31:08;;;;;;;21.75;7.42;;;;;;;-6.64;74.82;101748.36;1720370;82;21098;-62
2022/12/06 02:33:51;;;;;;;17.85;7.42;;;;;;;-6.67;74.81;101744.00;1751947;82;21816;-63
2022/12/06 02:36:32;;;;;;;26.05;8.05;;;;;;;-6.68;74.79;101747.59;1748741;82;21138;-62
2022/12/06 02:39:08;;;;;;;21.97;7.87;;;;;;;-6.66;74.78;101747.55;1751609;82;21607;-61
2022/12/06 02:42:03;;;;;;;20.37;7.80;;;;;;;-6.71;74.71;101745.91;1720928;82;21547;-62
2022/12/06 02:44:43;;;;;;;19.10;7.28;;;;;;;-6.79;74.72;101742.66;1751921;82;21174;-62
2022/12/06 02:47:12;;;;;;;19.70;7.95;;;;;;;-6.83;74.86;101750.34;1720254;82;21124;-61
2022/12/06 02:49:45;;;;;;;23.60;8.85;;;;;;;-6.83;75.01;101741.48;1751625;82;21114;-61
2022/12/06 02:52:14;;;;;;;22.82;9.48;;;;;;;-6.83;75.08;101738.36;1751641;82;21181;-62
2022/12/06 02:54:45;;;;;;;22.85;8.35;;;;;;;-6.83;75.04;101739.69;1719466;82;21102;-61
2022/12/06 02:57:14;;;;;;;22.15;8.05;;;;;;;-6.87;74.95;101743.39;1751590;82;21153;-63
2022/12/06 02:59:52;;;;;;;22.30;8.45;;;;;;;-6.92;74.97;101746.67;1751856;82;21122;-62
2022/12/06 03:02:24;;;;;;;20.37;7.33;;;;;;;-6.93;75.07;101737.41;1751632;82;21111;-63
2022/12/06 03:05:10;;;;;;;23.15;7.95;;;;;;;-6.91;75.11;101747.08;1751525;82;21433;-63
2022/12/06 03:07:44;;;;;;;23.45;8.23;;;;;;;-6.92;75.18;101748.00;1751746;82;21118;-62
2022/12/06 03:10:31;;;;;;;19.25;7.12;;;;;;;-6.91;75.18;101747.55;1751556;82;21436;-62
2022/12/06 03:13:25;;;;;;;18.60;8.20;;;;;;;-6.93;75.19;101745.40;1743876;82;21573;-61
2022/12/06 03:16:10;;;;;;;23.10;8.00;;;;;;;-6.94;75.21;101744.53;1751524;82;22115;-62
2022/12/06 03:18:48;;;;;;;25.70;8.50;;;;;;;-7.01;75.21;101749.66;1752231;81;21161;-61
2022/12/06 03:21:38;;;;;;;24.25;8.95;;;;;;;-7.07;75.27;101745.87;1751561;82;21169;-62
2022/12/06 03:24:10;;;;;;;20.50;8.10;;;;;;;-7.14;75.38;101750.54;1751628;82;21122;-63
2022/12/06 03:26:39;;;;;;;18.48;7.67;;;;;;;-7.14;75.58;101751.00;1751673;82;21376;-62
2022/12/06 03:29:08;;;;;;;24.57;8.60;;;;;;;-7.18;75.59;101754.20;1751624;82;21588;-62
2022/12/06 03:31:38;;;;;;;22.82;7.62;;;;;;;-7.23;75.72;101743.30;1751928;82;21121;-61
2022/12/06 03:34:22;;;;;;;19.80;7.40;;;;;;;-7.27;75.89;101748.31;1720876;82;21537;-62
2022/12/06 03:36:52;;;;;;;21.55;7.08;;;;;;;-7.22;76.09;101745.91;1751510;82;21115;-62
2022/12/06 03:39:32;;;;;;;16.67;5.97;;;;;;;-7.17;76.07;101740.42;1751708;82;21611;-63
2022/12/06 03:42:01;;;;;;;17.05;6.97;;;;;;;-7.14;76.10;101743.02;1751886;82;21142;-62
2022/12/06 03:44:33;;;;;;;13.58;5.12;;;;;;;-7.11;76.04;101735.78;1751876;82;21145;-61
2022/12/06 03:47:16;;;;;;;14.47;5.55;;;;;;;-7.06;76.05;101737.83;1751526;82;21554;-62
2022/12/06 03:49:48;;;;;;;17.37;5.92;;;;;;;-6.98;75.98;101742.02;1751858;82;21157;-62
2022/12/06 03:52:18;;;;;;;15.78;5.78;;;;;;;-6.96;75.84;101740.17;1751615;82;21185;-62
2022/12/06 03:54:47;;;;;;;17.67;6.22;;;;;;;-6.90;75.80;101732.84;1751655;82;21130;-61
2022/12/06 03:57:16;;;;;;;22.10;6.70;;;;;;;-6.85;75.61;101735.34;1744947;82;21123;-63
2022/12/06 03:59:45;;;;;;;19.30;6.12;;;;;;;-6.81;75.47;101729.84;1751856;82;21087;-61
2022/12/06 04:02:14;;;;;;;13.18;5.20;;;;;;;-6.80;75.26;101732.91;1751732;82;21169;-61
2022/12/06 04:04:44;;;;;;;11.95;4.80;;;;;;;-6.79;75.17;101731.99;1751571;82;21150;-63
2022/12/06 04:07:14;;;;;;;13.00;4.85;;;;;;;-6.75;75.07;101734.95;1752115;82;21123;-62
2022/12/06 04:09:55;;;;;;;11.83;5.05;;;;;;;-6.74;74.93;101732.70;1751618;82;21142;-63
2022/12/06 04:15:11;;;;;;;19.67;7.00;;;;;;;-6.74;74.66;101729.16;1751630;82;21142;-63
2022/12/06 04:23:02;;;;;;;18.23;6.80;;;;;;;-6.71;74.56;101720.59;1752160;82;21145;-64
2022/12/06 04:23:04;;;;;;;15.53;6.20;;;;;;;-6.67;74.45;101715.16;1750876;82;21162;-64
2022/12/06 04:25:34;;;;;;;16.37;6.78;;;;;;;-6.69;74.20;101709.01;1751423;82;21149;-64
2022/12/06 04:39:15;;;;;;;13.38;5.15;;;;;;;-6.87;74.13;101703.42;1746283;82;21562;-62
2022/12/06 04:44:33;;;;;;;;;;;;;;;-6.86;74.13;101709.62;1754188;82;21635;-62
2022/12/06 04:47:01;;;;;;;12.25;4.90;;;;;;;-6.85;74.05;101699.38;1751583;81;20456;-63
2022/12/06 04:49:31;;;;;;;11.38;4.30;;;;;;;-6.87;74.09;101696.76;1751855;82;21213;-62
2022/12/06 04:52:03;;;;;;;10.53;4.58;;;;;;;-6.85;74.08;101700.70;1751710;82;21095;-62
2022/12/06 04:54:33;;;;;;;12.58;5.30;;;;;;;-6.85;73.99;101695.38;1751615;82;21576;-63
2022/12/06 04:57:02;;;;;;;11.50;4.75;;;;;;;-6.87;73.88;101698.09;1751624;82;21129;-63
2022/12/06 04:59:32;;;;;;;11.65;4.78;;;;;;;-6.91;73.79;101699.13;1751800;82;21604;-62
2022/12/06 05:02:02;;;;;;;12.20;4.22;;;;;;;-6.91;73.84;101703.59;1751639;82;21118;-63
2022/12/06 05:04:32;;;;;;;15.23;5.20;;;;;;;-6.90;73.88;101698.20;1751829;82;21150;-62
2022/12/06 05:07:01;;;;;;;13.18;5.05;;;;;;;-6.90;73.79;101702.20;1721002;82;21181;-63
2022/12/06 05:09:31;;;;;;;16.05;5.42;;;;;;;-6.88;73.80;101696.81;1751674;82;21694;-63
2022/12/06 05:12:01;;;;;;;14.10;5.28;;;;;;;-6.92;73.69;101702.72;1751591;82;21161;-63
2022/12/06 05:14:31;;;;;;;14.87;5.78;;;;;;;-6.92;73.74;101698.72;1751709;82;21194;-64
2022/12/06 05:17:01;;;;;;;17.65;5.83;;;;;;;-6.91;73.81;101694.27;1751640;82;21349;-62
2022/12/06 05:19:31;;;;;;;16.45;5.60;;;;;;;-6.92;73.79;101689.86;1751788;82;21165;-62
2022/12/06 05:22:02;;;;;;;18.55;5.40;;;;;;;-6.96;73.74;101692.22;1751717;82;21110;-63
2022/12/06 05:24:33;;;;;;;16.70;5.80;;;;;;;-6.98;73.86;101689.61;1720087;82;21158;-63
2022/12/06 05:27:04;;;;;;;15.60;5.62;;;;;;;-6.98;73.93;101685.62;1751805;82;21169;-64
2022/12/06 05:29:35;;;;;;;15.40;5.62;;;;;;;-6.97;73.91;101681.16;1745024;82;21161;-63
2022/12/06 05:32:05;;;;;;;16.35;6.17;;;;;;;-6.95;73.99;101685.97;1751588;82;21123;-62
2022/12/06 05:34:35;;;;;;;15.80;6.30;;;;;;;-6.93;73.98;101684.99;1720693;82;21126;-63
2022/12/06 05:37:04;;;;;;;15.60;5.78;;;;;;;-6.95;73.98;101678.85;1751608;82;21130;-64
2022/12/06 05:39:35;;;;;;;16.02;5.85;;;;;;;-6.93;73.98;101682.33;1721290;82;21161;-64
2022/12/06 05:42:05;;;;;;;18.12;7.35;;;;;;;-6.93;74.02;101678.33;1751634;82;21197;-63
2022/12/06 05:44:34;;;;;;;17.60;6.37;;;;;;;-6.89;74.10;101673.30;1751714;82;21554;-63
2022/12/06 05:47:04;;;;;;;13.62;6.00;;;;;;;-6.85;74.19;101668.73;1749981;82;21170;-61
2022/12/06 05:49:34;;;;;;;16.02;6.30;;;;;;;-6.80;74.27;101669.43;1739366;82;21158;-63
2022/12/06 05:52:03;;;;;;;19.15;5.80;;;;;;;-6.77;74.22;101670.65;1742105;82;21130;-63
2022/12/06 05:54:35;;;;;;;10.32;4.67;;;;;;;-6.75;74.29;101668.33;1742640;82;21174;-62
2022/12/06 05:57:05;;;;;;;14.78;4.90;;;;;;;-6.74;74.27;101654.08;1739431;82;21119;-62
2022/12/06 05:59:37;;;;;;;11.90;4.62;;;;;;;-6.67;74.37;101659.19;1742838;82;21249;-62
2022/12/06 06:02:10;;;;;;;19.85;6.85;;;;;;;-6.65;74.31;101658.20;1742451;82;21178;-63
2022/12/06 06:04:42;;;;;;;18.77;5.87;;;;;;;-6.61;74.32;101656.28;1742150;82;21119;-63
2022/12/06 06:07:12;;;;;;;15.25;5.78;;;;;;;-6.55;74.43;101651.59;1742129;82;21667;-63
2022/12/06 06:09:41;;;;;;;16.57;6.22;;;;;;;-6.51;74.33;101653.68;1715730;82;21162;-64
2022/12/06 06:12:11;;;;;;;23.07;7.00;;;;;;;-6.46;74.33;101655.27;1742095;82;21197;-63
2022/12/06 06:14:41;;;;;;;15.40;6.87;;;;;;;-6.44;74.25;101656.55;1739580;82;21186;-63
2022/12/06 06:17:10;;;;;;;20.68;6.90;;;;;;;-6.41;74.35;101650.63;1742293;82;21142;-63
2022/12/06 06:19:41;;;;;;;15.65;6.28;;;;;;;-6.36;74.26;101652.25;1742260;82;21209;-62
2022/12/06 06:22:10;;;;;;;15.60;6.15;;;;;;;-6.33;74.28;101646.80;1742178;82;21171;-64
2022/12/06 06:24:40;;;;;;;18.48;7.35;;;;;;;-6.31;74.30;101644.94;1742307;82;21593;-65
2022/12/06 06:27:10;;;;;;;22.37;8.40;;;;;;;-6.31;74.34;101647.61;1741932;82;21189;-64
2022/12/06 06:29:40;;;;;;;13.90;5.80;;;;;;;-6.30;74.36;101648.02;1739558;82;21314;-64
2022/12/06 06:32:12;;;;;;;17.43;6.57;;;;;;;-6.30;74.56;101642.22;1714628;82;21147;-63
2022/12/06 06:34:46;;;;;;;18.37;6.75;;;;;;;-6.22;74.82;101639.25;1741965;82;21130;-62
2022/12/06 06:37:15;;;;;;;16.85;6.45;;;;;;;-6.15;74.92;101642.94;1742291;82;21174;-64
2022/12/06 06:39:51;;;;;;;16.55;6.45;;;;;;;-6.11;74.97;101641.89;1739641;82;21162;-63
2022/12/06 06:42:20;;;;;;;16.30;6.53;;;;;;;-6.02;75.26;101625.11;1742278;82;21166;-63
2022/12/06 06:44:53;;;;;;;16.62;6.75;;;;;;;-6.02;75.26;101625.11;1742425;82;21143;-63
2022/12/06 06:47:22;;;;;;;16.45;5.97;;;;;;;-5.96;75.32;101627.53;1743749;82;21567;-63
2022/12/06 06:49:51;;;;;;;17.12;6.85;;;;;;;-5.93;75.46;101628.73;1751288;82;21154;-63
2022/12/06 06:52:21;;;;;;;18.73;7.15;;;;;;;-5.93;75.56;101624.27;1751490;82;21663;-63
2022/12/06 06:54:51;;;;;;;18.32;7.03;;;;;;;-5.88;75.70;101629.38;1751637;82;21197;-63
2022/12/06 06:57:21;;;;;;;15.10;6.10;;;;;;;-5.87;75.79;101633.79;1751730;82;21170;-62
2022/12/06 06:59:51;;;;;;;20.20;6.75;;;;;;;-5.81;76.03;101626.90;1751584;82;21086;-61
2022/12/06 07:02:20;;;;;;;14.50;6.03;;;;;;;-5.78;76.05;101624.10;1751895;82;21627;-63
2022/12/06 07:04:50;;;;;;;15.03;6.22;;;;;;;-5.76;76.24;101623.11;1744774;82;21158;-62
2022/12/06 07:07:21;;;;;;;14.38;6.03;;;;;;;-5.69;76.47;101614.84;1751548;82;21568;-63
2022/12/06 07:09:51;;;;;;;13.58;6.33;;;;;;;-5.63;76.53;101615.45;1744995;82;21162;-62
2022/12/06 07:12:20;;;;;;;17.92;7.78;;;;;;;-5.59;76.60;101621.06;1751984;82;21082;-64
2022/12/06 07:14:50;;;;;;;27.20;8.80;;;;;;;-5.55;76.71;101621.33;1751957;82;21162;-64
2022/12/06 07:17:20;;;;;;;22.98;9.25;;;;;;;-5.52;76.81;101614.53;1751625;82;21122;-63
2022/12/06 07:19:50;;;;;;;21.20;8.10;;;;;;;-5.51;76.99;101617.59;1751908;82;21158;-63
2022/12/06 07:22:22;;;;;;;16.75;7.17;;;;;;;-5.49;77.03;101610.85;1751567;82;21122;-63
2022/12/06 07:24:52;;;;;;;37.05;11.57;;;;;;;-5.48;77.11;101613.92;1751507;82;21134;-63
2022/12/06 07:27:23;;;;;;;27.48;10.23;;;;;;;-5.46;77.18;101618.27;1719728;82;21601;-64
2022/12/06 07:29:53;;;;;;;26.75;9.70;;;;;;;-5.42;77.32;101617.66;1751719;82;21122;-64
2022/12/06 07:32:24;;;;;;;21.05;8.23;;;;;;;-5.38;77.40;101607.72;1751694;82;21541;-64
2022/12/06 07:34:54;;;;;;;18.42;6.42;;;;;;;-5.32;77.49;101610.13;1751540;82;21297;-65
2022/12/06 07:37:25;;;;;;;16.17;5.95;;;;;;;-5.27;77.41;101608.12;1751629;82;21118;-64
2022/12/06 07:39:55;;;;;;;12.30;5.67;;;;;;;-5.23;77.36;101609.72;1751832;82;21136;-65
2022/12/06 07:45:18;;;;;;;11.68;5.20;;;;;;;-5.22;77.43;101602.11;1751762;82;21130;-63
2022/12/06 07:47:48;;;;;;;18.62;5.40;;;;;;;-5.16;77.41;101608.55;1714512;83;21158;-66
2022/12/06 07:50:22;;;;;;;14.47;6.15;;;;;;;-5.15;77.37;101607.61;1708017;83;21115;-64
2022/12/06 07:52:52;;;;;;;20.20;5.85;;;;;;;-5.05;77.34;101604.92;1707630;83;21182;-64
2022/12/06 07:55:23;;;;;;;14.73;5.70;;;;;;;-5.05;77.34;101604.92;1708744;83;21187;-64
2022/12/06 07:57:55;;;;;;;15.80;6.05;;;;;;;-4.99;77.37;101601.98;1727366;83;21470;-64
2022/12/06 08:00:26;;;;;;;14.60;5.50;;;;;;;-4.96;77.33;101600.97;1707388;83;21537;-63
2022/12/06 08:02:56;;;;;;;13.95;6.35;;;;;;;-4.95;77.24;101602.23;1726913;83;21114;-63
2022/12/06 08:05:26;;;;;;;16.45;6.35;;;;;;;-4.91;77.22;101595.81;1727142;83;21597;-62
2022/12/06 08:07:58;;;;;;;15.90;6.12;;;;;;;-4.88;77.25;101594.81;1727307;83;21123;-65
2022/12/06 08:10:29;;;;;;;16.82;6.50;;;;;;;-4.86;77.32;101584.44;1727217;82;21150;-63
2022/12/06 08:13:02;;;;;;;18.20;6.65;;;;;;;-4.84;77.30;101581.70;1691325;83;21146;-62
2022/12/06 08:15:33;;;;;;;15.53;6.45;;;;;;;-4.82;77.40;101577.16;1726930;83;21094;-64
2022/12/06 08:18:04;;;;;;;14.68;5.25;;;;;;;-4.81;77.47;101566.86;1690259;83;21147;-64
2022/12/06 08:20:34;;;;;;;16.73;5.92;;;;;;;-4.79;77.73;101559.63;1727194;83;21130;-62
2022/12/06 08:23:04;;;;;;;15.13;6.08;;;;;;;-4.79;77.73;101559.63;1727133;83;21341;-63
2022/12/06 08:25:34;;;;;;;14.30;6.12;;;;;;;-4.65;77.78;101556.31;1727049;83;21118;-63
2022/12/06 08:28:04;;;;;;;11.95;5.20;;;;;;;-4.59;77.94;101561.37;1727158;83;21122;-64
2022/12/06 08:30:35;;;;;;;14.28;5.53;;;;;;;-4.59;77.94;101561.37;1726918;83;21158;-64
2022/12/06 08:33:04;;;;;;;10.00;4.85;;;;;;;-4.50;77.93;101554.28;1707550;83;21098;-60
2022/12/06 08:35:36;;;;;;;13.65;5.33;;;;;;;-4.45;77.88;101557.59;1727046;83;21130;-63
2022/12/06 08:38:06;;;;;;;12.63;4.87;;;;;;;-4.41;77.86;101551.16;1727068;83;21165;-64
2022/12/06 08:40:36;;;;;;;15.08;5.35;;;;;;;-4.36;77.85;101543.78;1727134;83;21170;-63
2022/12/06 08:43:09;;;;;;;8.18;4.00;;;;;;;-4.30;77.86;101545.28;1726951;83;21174;-64
2022/12/06 08:45:38;;;;;;;7.45;3.10;;;;;;;-4.27;78.23;101536.64;1726952;83;21138;-62
2022/12/06 08:48:08;;;;;;;5.90;3.05;;;;;;;-4.25;78.17;101537.43;1732196;82;21193;-65
2022/12/06 08:50:38;;;;;;;8.00;2.90;;;;;;;-4.19;78.25;101542.95;1751648;82;21558;-64
2022/12/06 08:53:08;;;;;;;7.92;3.50;;;;;;;-4.12;78.33;101539.50;1720915;82;21118;-63
2022/12/06 08:55:38;;;;;;;5.97;3.10;;;;;;;-4.06;78.21;101533.84;1751777;82;21134;-63
2022/12/06 08:58:07;;;;;;;7.20;3.33;;;;;;;-4.04;77.84;101530.14;1751668;82;21181;-62
2022/12/06 09:00:37;;;;;;;8.83;3.45;;;;;;;-4.04;77.84;101530.14;1744972;82;21170;-64
2022/12/06 09:03:06;;;;;;;9.58;2.98;;;;;;;-4.02;77.80;101526.05;1751740;82;21150;-61
2022/12/06 09:05:36;;;;;;;8.68;3.58;;;;;;;-4.00;77.65;101526.84;1740396;82;21526;-65
2022/12/06 09:08:08;;;;;;;7.55;3.08;;;;;;;-3.93;77.71;101528.27;1742829;82;21585;-65
2022/12/06 09:10:39;;;;;;;8.08;2.95;;;;;;;-3.93;77.41;101522.91;1725210;82;21167;-64
2022/12/06 09:13:08;;;;;;;8.18;3.20;;;;;;;-3.93;77.41;101522.91;1726058;82;21205;-62
2022/12/06 09:15:38;;;;;;;8.88;4.08;;;;;;;-3.94;77.34;101519.84;1744758;82;21119;-62
2022/12/06 09:18:08;;;;;;;9.40;3.42;;;;;;;-3.94;76.96;101511.33;1751428;82;21193;-61
2022/12/06 09:20:41;;;;;;;8.65;3.55;;;;;;;-3.93;76.89;101516.22;1744387;82;21197;-61
2022/12/06 09:23:10;;;;;;;8.50;3.58;;;;;;;-3.96;76.75;101503.86;1728594;82;21605;-61
2022/12/06 09:25:43;;;;;;;9.08;3.30;;;;;;;-3.94;76.84;101515.34;1721638;82;21175;-61
2022/12/06 09:28:12;;;;;;;9.35;3.55;;;;;;;-3.94;76.61;101501.97;1721601;83;21126;-62
2022/12/06 09:30:42;;;;;;;10.80;3.65;;;;;;;-3.95;77.54;101499.37;1721455;82;21194;-60
2022/12/06 09:33:13;;;;;;;12.25;4.10;;;;;;;-3.86;77.27;101498.93;1721865;82;21146;-61
2022/12/06 09:35:42;;;;;;;9.63;4.67;;;;;;;-3.84;76.90;101491.69;1721580;83;21126;-61
2022/12/06 09:38:12;;;;;;;14.05;5.60;;;;;;;-3.82;76.83;101485.77;1721521;83;21127;-61
2022/12/06 09:40:56;;;;;;;15.80;5.28;;;;;;;-3.78;76.64;101490.03;1693338;83;21138;-59
2022/12/06 09:43:33;;;;;;;14.53;4.80;;;;;;;-3.73;76.35;101483.09;1724704;83;21566;-60
2022/12/06 09:46:33;;;;;;;7.72;3.40;;;;;;;-3.72;76.15;101479.47;1724835;83;21138;-61
2022/12/06 09:49:26;;;;;;;12.47;4.22;;;;;;;-3.69;77.29;101484.19;1724374;83;21190;-62
2022/12/06 09:52:34;;;;;;;11.15;3.90;;;;;;;-3.63;76.68;101474.50;1724598;83;21589;-62
2022/12/06 09:55:32;;;;;;;10.90;4.67;;;;;;;-3.64;75.78;101475.91;1644089;83;21170;-61
2022/12/06 09:58:28;;;;;;;10.63;3.92;;;;;;;-3.69;75.66;101469.94;1714873;83;21162;-63
2022/12/06 10:01:23;;;;;;;10.68;4.00;;;;;;;-3.68;75.59;101468.52;1724585;83;21217;-61
2022/12/06 10:04:16;;;;;;;12.28;3.92;;;;;;;-3.62;75.39;101460.16;1724862;83;21106;-63
2022/12/06 10:18:44;;;;;;;10.77;3.77;;;;;;;-3.71;74.51;101441.90;1830040;77;24747;-56
2022/12/06 10:21:50;;;;;;;12.50;4.17;;;;;;;-3.75;74.60;101435.45;1748820;78;21458;-51
2022/12/06 10:24:55;;;;;;;8.75;3.90;;;;;;;-3.73;74.63;101441.11;1704866;83;21118;-53
2022/12/06 10:27:49;;;;;;;8.40;3.17;;;;;;;-3.76;74.73;101427.89;1741923;80;21122;-51
2022/12/06 10:30:19;;;;;;;8.60;3.47;;;;;;;-3.68;74.69;101444.41;1750067;80;21178;-52
2022/12/06 10:33:05;;;;;;;11.30;3.67;;;;;;;-3.64;74.37;101432.59;1760568;81;21097;-52
2022/12/06 10:35:42;;;;;;;12.95;5.08;;;;;;;-3.64;74.37;101432.59;1758758;81;21159;-52
2022/12/06 10:38:23;;;;;;;15.80;4.55;;;;;;;-3.59;74.49;101427.85;1756787;80;21104;-50
2022/12/06 10:41:25;;;;;;;11.80;4.33;;;;;;;-3.52;74.27;101435.09;1731199;81;21139;-52
2022/12/06 10:44:26;;;;;;;8.60;3.85;;;;;;;-3.49;74.09;101436.73;1728909;83;21142;-51
2022/12/06 10:47:33;;;;;;;8.80;3.62;;;;;;;-3.47;73.98;101423.65;1728695;83;21611;-52
2022/12/06 10:50:09;;;;;;;6.83;2.83;;;;;;;-3.47;73.85;101421.44;1728773;81;21119;-52
2022/12/06 10:52:42;;;;;;;;;;;;;;;-3.48;73.81;101421.05;1731018;81;21174;-52
2022/12/06 10:55:27;;;;;;;9.15;3.25;;;;;;;-3.51;73.53;101409.55;1730179;81;20201;-52
2022/12/06 10:58:16;;;;;;;9.20;3.42;;;;;;;-3.55;73.46;101413.34;1758647;81;21079;-52
2022/12/06 11:01:17;;;;;;;20.27;8.30;;;;;;;-3.50;75.50;101418.45;1758824;81;21110;-52
2022/12/06 11:04:17;;;;;;;6.80;3.12;;;;;;;-3.26;75.85;101424.29;1758817;81;21511;-51
2022/12/06 11:06:51;;;;;;;10.45;4.28;;;;;;;-3.22;74.26;101417.84;1758946;81;21146;-52
2022/12/06 11:09:47;;;;;;;7.00;3.50;;;;;;;-3.24;74.41;101409.02;1758858;81;21158;-51
2022/12/06 11:12:30;;;;;;;8.23;3.67;;;;;;;-3.29;73.54;101398.52;1758749;80;21111;-51
2022/12/06 11:15:24;;;;;;;6.75;3.15;;;;;;;-3.33;73.46;101397.44;1759019;81;21170;-51
2022/12/06 11:18:14;;;;;;;15.63;4.45;;;;;;;-3.39;73.05;101395.09;1758735;81;21139;-50
2022/12/06 11:21:14;;;;;;;8.58;3.75;;;;;;;-3.41;73.87;101390.30;1759236;80;21123;-50
2022/12/06 11:23:54;;;;;;;13.13;4.00;;;;;;;-3.41;73.50;101383.13;1764448;81;21127;-52
2022/12/06 11:26:37;;;;;;;11.03;3.80;;;;;;;-3.40;73.39;101375.48;1764613;81;21107;-52
2022/12/06 11:29:11;;;;;;;21.37;4.33;;;;;;;-3.43;73.21;101370.77;1763921;81;21143;-52
2022/12/06 11:31:56;;;;;;;8.75;3.85;;;;;;;-3.44;73.29;101371.72;1733933;83;21197;-53
2022/12/06 11:34:52;;;;;;;8.63;3.62;;;;;;;-3.42;73.31;101369.34;1733657;82;21608;-49
2022/12/06 11:37:25;;;;;;;10.43;2.92;;;;;;;-3.43;73.07;101366.27;1733799;82;21095;-52
2022/12/06 11:40:10;;;;;;;11.28;3.92;;;;;;;-3.48;72.94;101359.44;1733651;83;21166;-51
2022/12/06 11:42:40;;;;;;;8.95;3.30;;;;;;;-3.51;72.96;101355.98;1725130;83;21190;-51
2022/12/06 11:45:27;;;;;;;9.55;3.72;;;;;;;-3.54;72.98;101352.13;1733668;83;21131;-52
2022/12/06 11:47:58;;;;;;;7.53;2.70;;;;;;;-3.55;73.80;101351.73;1733795;83;21546;-52
2022/12/06 11:50:31;;;;;;;8.03;3.70;;;;;;;-3.54;73.70;101348.11;1733627;83;21139;-51
2022/12/06 11:53:05;;;;;;;9.23;3.60;;;;;;;-3.54;73.51;101356.15;1733632;83;21142;-50
2022/12/06 11:55:38;;;;;;;7.47;3.15;;;;;;;-3.54;73.31;101345.44;1732417;83;21138;-51
2022/12/06 11:58:16;;;;;;;8.78;3.30;;;;;;;-3.54;73.22;101353.47;1733915;82;21150;-52
2022/12/06 12:01:10;;;;;;;9.23;3.22;;;;;;;-3.56;73.27;101340.64;1733858;83;21159;-52
2022/12/06 12:03:43;;;;;;;12.90;4.55;;;;;;;-3.58;73.26;101338.52;1733843;82;21150;-51
2022/12/06 12:06:25;;;;;;;13.93;5.03;;;;;;;-3.60;73.39;101336.39;1733915;83;21166;-52
2022/12/06 12:09:05;;;;;;;9.73;4.15;;;;;;;-3.63;73.56;101325.85;1733829;83;21608;-52
2022/12/06 12:11:38;;;;;;;18.25;5.53;;;;;;;-3.59;73.81;101323.39;1733480;83;21647;-50
2022/12/06 12:14:19;;;;;;;11.63;4.75;;;;;;;-3.53;73.91;101333.77;1733633;83;21162;-52
2022/12/06 12:16:49;;;;;;;10.70;4.25;;;;;;;-3.48;73.76;101333.98;1733712;82;21095;-51
2022/12/06 12:19:37;;;;;;;12.00;4.37;;;;;;;-3.49;73.54;101325.09;1733607;83;21170;-51
2022/12/06 12:22:37;;;;;;;9.38;4.00;;;;;;;-3.51;73.50;101322.97;1731127;82;21558;-52
2022/12/06 12:25:30;;;;;;;10.08;3.90;;;;;;;-3.54;73.44;101317.78;1728216;83;21146;-51
2022/12/06 12:28:00;;;;;;;9.55;3.98;;;;;;;-3.57;73.59;101307.24;1755595;81;21072;-52
2022/12/06 12:30:35;;;;;;;12.35;4.17;;;;;;;-3.64;73.56;101305.85;1760678;81;21123;-51